sensor_id;sensor_type;location;lat;lon;timestamp;P1;durP1;ratioP1;P2;durP2;ratioP2
21663;SDS011;10993;52.510;13.456;2023-02-20T00:03:00;3.87;;;1.93;;
21663;SDS011;10993;52.510;13.456;2023-02-20T00:08:00;5.40;;;1.97;;
21663;SDS011;10993;52.510;13.456;2023-02-20T00:13:00;4.20;;;1.70;;
21663;SDS011;10993;52.510;13.456;2023-02-20T00:18:02;4.77;;;1.90;;
21663;SDS011;10993;52.510;13.456;2023-02-20T00:23:02;7.30;;;2.70;;
21663;SDS011;10993;52.510;13.456;2023-02-20T00:28:03;6.77;;;2.27;;
21663;SDS011;10993;52.510;13.456;2023-02-20T00:33:05;3.73;;;1.90;;
21663;SDS011;10993;52.510;13.456;2023-02-20T00:38:05;4.10;;;1.87;;
21663;SDS011;10993;52.510;13.456;2023-02-20T00:43:06;7.07;;;2.33;;
21663;SDS011;10993;52.510;13.456;2023-02-20T00:48:07;5.40;;;2.10;;
21663;SDS011;10993;52.510;13.456;2023-02-20T00:53:08;4.90;;;2.00;;
21663;SDS011;10993;52.510;13.456;2023-02-20T00:58:08;5.30;;;2.30;;
21663;SDS011;10993;52.510;13.456;2023-02-20T01:03:10;4.63;;;1.93;;
21663;SDS011;10993;52.510;13.456;2023-02-20T01:08:12;4.43;;;2.03;;
21663;SDS011;10993;52.510;13.456;2023-02-20T01:13:12;9.13;;;2.50;;
21663;SDS011;10993;52.510;13.456;2023-02-20T01:18:14;7.43;;;2.17;;
21663;SDS011;10993;52.510;13.456;2023-02-20T01:23:14;4.60;;;2.43;;
21663;SDS011;10993;52.510;13.456;2023-02-20T01:28:14;8.03;;;2.77;;
21663;SDS011;10993;52.510;13.456;2023-02-20T01:33:16;9.07;;;2.10;;
21663;SDS011;10993;52.510;13.456;2023-02-20T01:38:16;4.10;;;1.80;;
21663;SDS011;10993;52.510;13.456;2023-02-20T01:43:17;3.67;;;1.50;;
21663;SDS011;10993;52.510;13.456;2023-02-20T01:48:20;4.00;;;1.97;;
21663;SDS011;10993;52.510;13.456;2023-02-20T01:53:22;7.27;;;2.43;;
21663;SDS011;10993;52.510;13.456;2023-02-20T01:58:26;4.43;;;1.80;;
21663;SDS011;10993;52.510;13.456;2023-02-20T02:03:32;5.57;;;2.33;;
21663;SDS011;10993;52.510;13.456;2023-02-20T02:08:36;4.27;;;2.10;;
21663;SDS011;10993;52.510;13.456;2023-02-20T02:13:38;6.87;;;2.23;;
21663;SDS011;10993;52.510;13.456;2023-02-20T02:24:50;7.23;;;2.10;;
21663;SDS011;10993;52.510;13.456;2023-02-20T02:30:26;4.07;;;2.33;;
21663;SDS011;10993;52.510;13.456;2023-02-20T02:35:55;5.23;;;2.27;;
21663;SDS011;10993;52.510;13.456;2023-02-20T02:41:14;8.60;;;2.53;;
21663;SDS011;10993;52.510;13.456;2023-02-20T02:46:20;3.87;;;2.20;;
21663;SDS011;10993;52.510;13.456;2023-02-20T02:51:28;7.73;;;2.83;;
21663;SDS011;10993;52.510;13.456;2023-02-20T02:56:36;4.17;;;2.10;;
21663;SDS011;10993;52.510;13.456;2023-02-20T03:01:42;6.03;;;2.80;;
21663;SDS011;10993;52.510;13.456;2023-02-20T03:06:47;4.30;;;1.97;;
21663;SDS011;10993;52.510;13.456;2023-02-20T03:11:50;8.07;;;2.57;;
21663;SDS011;10993;52.510;13.456;2023-02-20T03:16:53;5.27;;;2.47;;
21663;SDS011;10993;52.510;13.456;2023-02-20T03:22:00;6.73;;;2.83;;
21663;SDS011;10993;52.510;13.456;2023-02-20T03:27:03;7.07;;;2.70;;
21663;SDS011;10993;52.510;13.456;2023-02-20T03:32:04;5.90;;;2.50;;
21663;SDS011;10993;52.510;13.456;2023-02-20T03:37:28;5.67;;;2.30;;
21663;SDS011;10993;52.510;13.456;2023-02-20T03:42:52;7.97;;;2.70;;
21663;SDS011;10993;52.510;13.456;2023-02-20T03:48:17;6.27;;;3.00;;
21663;SDS011;10993;52.510;13.456;2023-02-20T03:53:22;7.43;;;2.90;;
21663;SDS011;10993;52.510;13.456;2023-02-20T03:58:23;5.10;;;2.80;;
21663;SDS011;10993;52.510;13.456;2023-02-20T04:03:25;5.17;;;2.77;;
21663;SDS011;10993;52.510;13.456;2023-02-20T04:08:31;6.03;;;3.00;;
21663;SDS011;10993;52.510;13.456;2023-02-20T04:13:35;6.90;;;3.23;;
21663;SDS011;10993;52.510;13.456;2023-02-20T04:18:37;6.60;;;3.37;;
21663;SDS011;10993;52.510;13.456;2023-02-20T04:23:40;7.23;;;3.37;;
21663;SDS011;10993;52.510;13.456;2023-02-20T04:28:45;6.13;;;2.97;;
21663;SDS011;10993;52.510;13.456;2023-02-20T04:33:46;7.20;;;3.00;;
21663;SDS011;10993;52.510;13.456;2023-02-20T04:38:48;9.53;;;3.67;;
21663;SDS011;10993;52.510;13.456;2023-02-20T04:43:48;9.37;;;3.03;;
21663;SDS011;10993;52.510;13.456;2023-02-20T04:48:49;7.30;;;3.20;;
21663;SDS011;10993;52.510;13.456;2023-02-20T04:53:50;8.20;;;3.63;;
21663;SDS011;10993;52.510;13.456;2023-02-20T04:58:51;5.93;;;2.70;;
21663;SDS011;10993;52.510;13.456;2023-02-20T05:03:51;8.93;;;3.40;;
21663;SDS011;10993;52.510;13.456;2023-02-20T05:08:53;6.20;;;3.03;;
21663;SDS011;10993;52.510;13.456;2023-02-20T05:13:53;8.23;;;2.90;;
21663;SDS011;10993;52.510;13.456;2023-02-20T05:18:54;8.25;;;3.50;;
21663;SDS011;10993;52.510;13.456;2023-02-20T05:23:55;6.67;;;2.90;;
21663;SDS011;10993;52.510;13.456;2023-02-20T05:28:56;9.03;;;3.47;;
21663;SDS011;10993;52.510;13.456;2023-02-20T05:33:56;5.28;;;2.78;;
21663;SDS011;10993;52.510;13.456;2023-02-20T05:38:58;8.13;;;3.35;;
21663;SDS011;10993;52.510;13.456;2023-02-20T05:43:58;7.73;;;3.53;;
21663;SDS011;10993;52.510;13.456;2023-02-20T05:48:59;6.77;;;3.20;;
21663;SDS011;10993;52.510;13.456;2023-02-20T05:54:00;7.00;;;3.33;;
21663;SDS011;10993;52.510;13.456;2023-02-20T05:59:01;8.60;;;3.40;;
21663;SDS011;10993;52.510;13.456;2023-02-20T06:04:01;7.00;;;3.50;;
21663;SDS011;10993;52.510;13.456;2023-02-20T06:09:03;8.68;;;3.50;;
21663;SDS011;10993;52.510;13.456;2023-02-20T06:14:09;6.18;;;3.50;;
21663;SDS011;10993;52.510;13.456;2023-02-20T06:19:10;7.20;;;3.67;;
21663;SDS011;10993;52.510;13.456;2023-02-20T06:24:12;7.60;;;3.23;;
21663;SDS011;10993;52.510;13.456;2023-02-20T06:29:13;7.78;;;3.00;;
21663;SDS011;10993;52.510;13.456;2023-02-20T06:34:14;7.63;;;3.63;;
21663;SDS011;10993;52.510;13.456;2023-02-20T06:39:16;11.93;;;4.40;;
21663;SDS011;10993;52.510;13.456;2023-02-20T06:44:17;8.60;;;3.87;;
21663;SDS011;10993;52.510;13.456;2023-02-20T06:49:17;8.05;;;3.72;;
21663;SDS011;10993;52.510;13.456;2023-02-20T06:54:19;9.70;;;4.47;;
21663;SDS011;10993;52.510;13.456;2023-02-20T06:59:21;13.05;;;5.13;;
21663;SDS011;10993;52.510;13.456;2023-02-20T07:04:22;11.45;;;5.22;;
21663;SDS011;10993;52.510;13.456;2023-02-20T07:09:26;9.98;;;4.95;;
21663;SDS011;10993;52.510;13.456;2023-02-20T07:14:27;11.10;;;5.38;;
21663;SDS011;10993;52.510;13.456;2023-02-20T07:19:27;12.63;;;5.43;;
21663;SDS011;10993;52.510;13.456;2023-02-20T07:24:29;11.07;;;5.20;;
21663;SDS011;10993;52.510;13.456;2023-02-20T07:29:29;10.40;;;5.45;;
21663;SDS011;10993;52.510;13.456;2023-02-20T07:34:29;11.77;;;6.07;;
21663;SDS011;10993;52.510;13.456;2023-02-20T07:39:31;13.80;;;5.80;;
21663;SDS011;10993;52.510;13.456;2023-02-20T07:44:31;13.35;;;6.03;;
21663;SDS011;10993;52.510;13.456;2023-02-20T07:49:32;10.50;;;5.35;;
21663;SDS011;10993;52.510;13.456;2023-02-20T07:54:33;9.75;;;5.05;;
21663;SDS011;10993;52.510;13.456;2023-02-20T07:59:34;10.75;;;5.90;;
21663;SDS011;10993;52.510;13.456;2023-02-20T08:04:34;9.98;;;5.30;;
21663;SDS011;10993;52.510;13.456;2023-02-20T08:09:36;11.00;;;5.47;;
21663;SDS011;10993;52.510;13.456;2023-02-20T08:14:36;8.73;;;4.28;;
21663;SDS011;10993;52.510;13.456;2023-02-20T08:19:36;10.35;;;4.55;;
21663;SDS011;10993;52.510;13.456;2023-02-20T08:24:38;8.43;;;4.38;;
21663;SDS011;10993;52.510;13.456;2023-02-20T08:29:38;8.35;;;4.38;;
21663;SDS011;10993;52.510;13.456;2023-02-20T08:34:39;8.82;;;4.30;;
21663;SDS011;10993;52.510;13.456;2023-02-20T08:39:41;7.90;;;4.05;;
21663;SDS011;10993;52.510;13.456;2023-02-20T08:44:41;8.90;;;4.35;;
21663;SDS011;10993;52.510;13.456;2023-02-20T08:49:42;7.05;;;3.60;;
21663;SDS011;10993;52.510;13.456;2023-02-20T08:54:47;6.90;;;3.55;;
21663;SDS011;10993;52.510;13.456;2023-02-20T08:59:47;7.82;;;4.00;;
21663;SDS011;10993;52.510;13.456;2023-02-20T09:04:48;10.05;;;4.05;;
21663;SDS011;10993;52.510;13.456;2023-02-20T09:09:49;9.55;;;4.07;;
21663;SDS011;10993;52.510;13.456;2023-02-20T09:14:50;7.53;;;3.95;;
21663;SDS011;10993;52.510;13.456;2023-02-20T09:19:50;6.68;;;3.22;;
21663;SDS011;10993;52.510;13.456;2023-02-20T09:24:52;5.47;;;2.78;;
21663;SDS011;10993;52.510;13.456;2023-02-20T09:29:53;5.95;;;2.85;;
21663;SDS011;10993;52.510;13.456;2023-02-20T09:34:53;5.88;;;2.55;;
21663;SDS011;10993;52.510;13.456;2023-02-20T09:39:55;8.10;;;3.28;;
21663;SDS011;10993;52.510;13.456;2023-02-20T09:44:58;5.32;;;2.78;;
21663;SDS011;10993;52.510;13.456;2023-02-20T09:50:05;5.60;;;2.63;;
21663;SDS011;10993;52.510;13.456;2023-02-20T09:55:16;6.38;;;2.50;;
21663;SDS011;10993;52.510;13.456;2023-02-20T10:00:20;6.93;;;2.95;;
21663;SDS011;10993;52.510;13.456;2023-02-20T10:05:27;6.88;;;2.95;;
21663;SDS011;10993;52.510;13.456;2023-02-20T10:10:30;5.30;;;2.47;;
21663;SDS011;10993;52.510;13.456;2023-02-20T10:15:39;5.53;;;2.78;;
21663;SDS011;10993;52.510;13.456;2023-02-20T10:20:51;4.65;;;2.25;;
21663;SDS011;10993;52.510;13.456;2023-02-20T10:25:59;6.10;;;2.38;;
21663;SDS011;10993;52.510;13.456;2023-02-20T10:31:04;5.90;;;2.17;;
21663;SDS011;10993;52.510;13.456;2023-02-20T10:36:11;8.25;;;2.40;;
21663;SDS011;10993;52.510;13.456;2023-02-20T10:41:18;5.57;;;2.58;;
21663;SDS011;10993;52.510;13.456;2023-02-20T10:46:25;7.03;;;3.20;;
21663;SDS011;10993;52.510;13.456;2023-02-20T10:51:31;5.90;;;2.33;;
21663;SDS011;10993;52.510;13.456;2023-02-20T10:56:36;5.85;;;2.72;;
21663;SDS011;10993;52.510;13.456;2023-02-20T11:01:40;6.25;;;2.67;;
21663;SDS011;10993;52.510;13.456;2023-02-20T11:06:41;4.57;;;2.13;;
21663;SDS011;10993;52.510;13.456;2023-02-20T11:11:46;5.88;;;3.08;;
21663;SDS011;10993;52.510;13.456;2023-02-20T11:16:47;4.97;;;2.17;;
21663;SDS011;10993;52.510;13.456;2023-02-20T11:21:51;7.00;;;2.60;;
21663;SDS011;10993;52.510;13.456;2023-02-20T11:26:55;5.93;;;2.72;;
21663;SDS011;10993;52.510;13.456;2023-02-20T11:32:13;5.40;;;2.67;;
21663;SDS011;10993;52.510;13.456;2023-02-20T11:37:37;5.75;;;2.88;;
21663;SDS011;10993;52.510;13.456;2023-02-20T11:42:39;7.68;;;3.28;;
21663;SDS011;10993;52.510;13.456;2023-02-20T11:47:39;4.57;;;2.13;;
21663;SDS011;10993;52.510;13.456;2023-02-20T11:52:53;6.72;;;3.08;;
21663;SDS011;10993;52.510;13.456;2023-02-20T11:57:56;6.45;;;2.50;;
21663;SDS011;10993;52.510;13.456;2023-02-20T12:03:03;5.03;;;2.85;;
21663;SDS011;10993;52.510;13.456;2023-02-20T12:08:28;5.90;;;2.63;;
21663;SDS011;10993;52.510;13.456;2023-02-20T12:13:37;5.50;;;2.72;;
21663;SDS011;10993;52.510;13.456;2023-02-20T12:18:39;6.25;;;3.03;;
21663;SDS011;10993;52.510;13.456;2023-02-20T12:23:48;8.82;;;3.15;;
21663;SDS011;10993;52.510;13.456;2023-02-20T12:29:02;7.38;;;3.45;;
21663;SDS011;10993;52.510;13.456;2023-02-20T12:39:40;6.45;;;3.60;;
21663;SDS011;10993;52.510;13.456;2023-02-20T12:44:58;6.32;;;3.35;;
21663;SDS011;10993;52.510;13.456;2023-02-20T12:50:21;7.70;;;4.10;;
21663;SDS011;10993;52.510;13.456;2023-02-20T12:55:35;9.35;;;4.10;;
21663;SDS011;10993;52.510;13.456;2023-02-20T13:00:50;8.60;;;4.70;;
21663;SDS011;10993;52.510;13.456;2023-02-20T13:05:52;10.48;;;4.70;;
21663;SDS011;10993;52.510;13.456;2023-02-20T13:10:54;9.43;;;5.03;;
21663;SDS011;10993;52.510;13.456;2023-02-20T13:16:00;10.00;;;5.28;;
21663;SDS011;10993;52.510;13.456;2023-02-20T13:21:09;10.07;;;5.57;;
21663;SDS011;10993;52.510;13.456;2023-02-20T13:31:47;11.40;;;5.65;;
21663;SDS011;10993;52.510;13.456;2023-02-20T13:36:49;13.57;;;5.88;;
21663;SDS011;10993;52.510;13.456;2023-02-20T13:41:56;13.40;;;6.60;;
21663;SDS011;10993;52.510;13.456;2023-02-20T13:46:59;14.80;;;6.65;;
21663;SDS011;10993;52.510;13.456;2023-02-20T13:52:03;12.93;;;6.35;;
21663;SDS011;10993;52.510;13.456;2023-02-20T13:57:41;11.18;;;6.28;;
21663;SDS011;10993;52.510;13.456;2023-02-20T14:02:45;11.73;;;6.30;;
21663;SDS011;10993;52.510;13.456;2023-02-20T14:07:46;13.45;;;5.75;;
21663;SDS011;10993;52.510;13.456;2023-02-20T14:12:51;12.48;;;6.10;;
21663;SDS011;10993;52.510;13.456;2023-02-20T14:17:55;12.27;;;5.68;;
21663;SDS011;10993;52.510;13.456;2023-02-20T14:23:16;11.35;;;4.95;;
21663;SDS011;10993;52.510;13.456;2023-02-20T14:28:18;11.20;;;5.90;;
21663;SDS011;10993;52.510;13.456;2023-02-20T14:33:23;9.25;;;5.03;;
21663;SDS011;10993;52.510;13.456;2023-02-20T14:38:30;11.88;;;5.68;;
21663;SDS011;10993;52.510;13.456;2023-02-20T14:43:40;10.35;;;5.28;;
21663;SDS011;10993;52.510;13.456;2023-02-20T14:48:42;10.10;;;5.07;;
21663;SDS011;10993;52.510;13.456;2023-02-20T14:53:42;10.95;;;4.78;;
21663;SDS011;10993;52.510;13.456;2023-02-20T14:58:44;11.95;;;4.90;;
21663;SDS011;10993;52.510;13.456;2023-02-20T15:03:55;8.48;;;4.55;;
21663;SDS011;10993;52.510;13.456;2023-02-20T15:08:59;7.47;;;4.15;;
21663;SDS011;10993;52.510;13.456;2023-02-20T15:14:01;8.27;;;3.70;;
21663;SDS011;10993;52.510;13.456;2023-02-20T15:19:18;10.48;;;4.78;;
21663;SDS011;10993;52.510;13.456;2023-02-20T15:24:29;10.10;;;3.75;;
21663;SDS011;10993;52.510;13.456;2023-02-20T15:29:33;6.90;;;3.67;;
21663;SDS011;10993;52.510;13.456;2023-02-20T15:34:36;9.10;;;3.75;;
21663;SDS011;10993;52.510;13.456;2023-02-20T15:39:38;9.75;;;4.18;;
21663;SDS011;10993;52.510;13.456;2023-02-20T15:44:38;6.25;;;3.28;;
21663;SDS011;10993;52.510;13.456;2023-02-20T15:49:40;8.88;;;4.43;;
21663;SDS011;10993;52.510;13.456;2023-02-20T15:54:40;9.18;;;4.47;;
21663;SDS011;10993;52.510;13.456;2023-02-20T15:59:41;9.35;;;4.43;;
21663;SDS011;10993;52.510;13.456;2023-02-20T16:04:42;7.93;;;4.45;;
21663;SDS011;10993;52.510;13.456;2023-02-20T16:09:43;10.48;;;4.75;;
21663;SDS011;10993;52.510;13.456;2023-02-20T16:14:43;12.77;;;4.68;;
21663;SDS011;10993;52.510;13.456;2023-02-20T16:19:45;10.80;;;4.68;;
21663;SDS011;10993;52.510;13.456;2023-02-20T16:24:46;8.68;;;4.32;;
21663;SDS011;10993;52.510;13.456;2023-02-20T16:29:46;8.63;;;4.30;;
21663;SDS011;10993;52.510;13.456;2023-02-20T16:34:49;10.43;;;4.55;;
21663;SDS011;10993;52.510;13.456;2023-02-20T16:39:50;9.45;;;3.95;;
21663;SDS011;10993;52.510;13.456;2023-02-20T16:44:51;9.52;;;4.20;;
21663;SDS011;10993;52.510;13.456;2023-02-20T16:49:58;6.97;;;3.60;;
21663;SDS011;10993;52.510;13.456;2023-02-20T16:55:00;8.40;;;4.15;;
21663;SDS011;10993;52.510;13.456;2023-02-20T17:00:02;7.97;;;3.85;;
21663;SDS011;10993;52.510;13.456;2023-02-20T17:05:06;7.32;;;4.00;;
21663;SDS011;10993;52.510;13.456;2023-02-20T17:10:07;9.88;;;4.53;;
21663;SDS011;10993;52.510;13.456;2023-02-20T17:15:07;8.27;;;4.10;;
21663;SDS011;10993;52.510;13.456;2023-02-20T17:20:12;7.82;;;3.88;;
21663;SDS011;10993;52.510;13.456;2023-02-20T17:25:14;8.45;;;4.10;;
21663;SDS011;10993;52.510;13.456;2023-02-20T17:30:18;9.25;;;4.28;;
21663;SDS011;10993;52.510;13.456;2023-02-20T17:35:20;7.65;;;3.92;;
21663;SDS011;10993;52.510;13.456;2023-02-20T17:40:21;7.80;;;4.25;;
21663;SDS011;10993;52.510;13.456;2023-02-20T17:45:21;10.43;;;4.13;;
21663;SDS011;10993;52.510;13.456;2023-02-20T17:50:23;7.57;;;3.83;;
21663;SDS011;10993;52.510;13.456;2023-02-20T17:55:24;10.95;;;3.72;;
21663;SDS011;10993;52.510;13.456;2023-02-20T18:00:25;8.48;;;3.30;;
21663;SDS011;10993;52.510;13.456;2023-02-20T18:05:27;8.60;;;3.72;;
21663;SDS011;10993;52.510;13.456;2023-02-20T18:10:28;9.45;;;4.05;;
21663;SDS011;10993;52.510;13.456;2023-02-20T18:15:28;10.02;;;4.35;;
21663;SDS011;10993;52.510;13.456;2023-02-20T18:20:30;8.68;;;3.83;;
21663;SDS011;10993;52.510;13.456;2023-02-20T18:25:31;10.18;;;4.50;;
21663;SDS011;10993;52.510;13.456;2023-02-20T18:30:31;12.05;;;5.25;;
21663;SDS011;10993;52.510;13.456;2023-02-20T18:35:35;9.50;;;4.93;;
21663;SDS011;10993;52.510;13.456;2023-02-20T18:40:36;13.40;;;5.85;;
21663;SDS011;10993;52.510;13.456;2023-02-20T18:45:36;11.80;;;5.85;;
21663;SDS011;10993;52.510;13.456;2023-02-20T18:50:38;13.48;;;5.63;;
21663;SDS011;10993;52.510;13.456;2023-02-20T18:55:38;13.85;;;5.97;;
21663;SDS011;10993;52.510;13.456;2023-02-20T19:00:39;11.90;;;5.88;;
21663;SDS011;10993;52.510;13.456;2023-02-20T19:05:41;13.98;;;6.13;;
21663;SDS011;10993;52.510;13.456;2023-02-20T19:10:41;12.25;;;6.22;;
21663;SDS011;10993;52.510;13.456;2023-02-20T19:15:41;11.20;;;4.63;;
21663;SDS011;10993;52.510;13.456;2023-02-20T19:20:43;14.50;;;5.57;;
21663;SDS011;10993;52.510;13.456;2023-02-20T19:25:43;13.30;;;5.63;;
21663;SDS011;10993;52.510;13.456;2023-02-20T19:30:44;10.60;;;4.93;;
21663;SDS011;10993;52.510;13.456;2023-02-20T19:35:46;11.30;;;5.55;;
21663;SDS011;10993;52.510;13.456;2023-02-20T19:40:47;9.27;;;4.95;;
21663;SDS011;10993;52.510;13.456;2023-02-20T19:45:47;10.13;;;4.97;;
21663;SDS011;10993;52.510;13.456;2023-02-20T19:50:49;11.18;;;4.60;;
21663;SDS011;10993;52.510;13.456;2023-02-20T19:55:49;8.88;;;4.28;;
21663;SDS011;10993;52.510;13.456;2023-02-20T20:00:53;10.88;;;5.22;;
21663;SDS011;10993;52.510;13.456;2023-02-20T20:05:56;10.52;;;4.68;;
21663;SDS011;10993;52.510;13.456;2023-02-20T20:10:57;7.70;;;4.40;;
21663;SDS011;10993;52.510;13.456;2023-02-20T20:15:58;9.68;;;4.32;;
21663;SDS011;10993;52.510;13.456;2023-02-20T20:21:00;9.90;;;4.63;;
21663;SDS011;10993;52.510;13.456;2023-02-20T20:26:00;8.57;;;4.20;;
21663;SDS011;10993;52.510;13.456;2023-02-20T20:31:01;7.38;;;3.50;;
21663;SDS011;10993;52.510;13.456;2023-02-20T20:36:03;9.40;;;4.45;;
21663;SDS011;10993;52.510;13.456;2023-02-20T20:41:04;6.95;;;3.63;;
21663;SDS011;10993;52.510;13.456;2023-02-20T20:46:04;11.00;;;4.05;;
21663;SDS011;10993;52.510;13.456;2023-02-20T20:51:06;5.75;;;3.25;;
21663;SDS011;10993;52.510;13.456;2023-02-20T20:56:07;7.10;;;3.55;;
21663;SDS011;10993;52.510;13.456;2023-02-20T21:01:08;7.45;;;3.35;;
21663;SDS011;10993;52.510;13.456;2023-02-20T21:06:10;7.25;;;3.67;;
21663;SDS011;10993;52.510;13.456;2023-02-20T21:11:11;8.98;;;3.80;;
21663;SDS011;10993;52.510;13.456;2023-02-20T21:16:12;8.15;;;4.00;;
21663;SDS011;10993;52.510;13.456;2023-02-20T21:21:14;8.90;;;4.50;;
21663;SDS011;10993;52.510;13.456;2023-02-20T21:26:15;6.57;;;3.65;;
21663;SDS011;10993;52.510;13.456;2023-02-20T21:31:15;9.60;;;4.63;;
21663;SDS011;10993;52.510;13.456;2023-02-20T21:36:17;7.63;;;3.65;;
21663;SDS011;10993;52.510;13.456;2023-02-20T21:41:18;6.05;;;3.25;;
21663;SDS011;10993;52.510;13.456;2023-02-20T21:46:38;6.18;;;3.67;;
21663;SDS011;10993;52.510;13.456;2023-02-20T21:51:40;7.03;;;3.45;;
21663;SDS011;10993;52.510;13.456;2023-02-20T21:56:41;6.55;;;3.70;;
21663;SDS011;10993;52.510;13.456;2023-02-20T22:01:41;6.22;;;3.03;;
21663;SDS011;10993;52.510;13.456;2023-02-20T22:06:44;5.47;;;3.05;;
21663;SDS011;10993;52.510;13.456;2023-02-20T22:12:05;5.70;;;2.78;;
21663;SDS011;10993;52.510;13.456;2023-02-20T22:17:24;5.13;;;2.90;;
21663;SDS011;10993;52.510;13.456;2023-02-20T22:22:44;6.93;;;3.20;;
21663;SDS011;10993;52.510;13.456;2023-02-20T22:28:03;6.45;;;3.42;;
21663;SDS011;10993;52.510;13.456;2023-02-20T22:33:22;7.10;;;3.38;;
21663;SDS011;10993;52.510;13.456;2023-02-20T22:38:42;6.00;;;3.42;;
21663;SDS011;10993;52.510;13.456;2023-02-20T22:44:01;6.85;;;3.50;;
21663;SDS011;10993;52.510;13.456;2023-02-20T22:49:20;5.05;;;2.67;;
21663;SDS011;10993;52.510;13.456;2023-02-20T22:54:40;5.82;;;3.20;;
21663;SDS011;10993;52.510;13.456;2023-02-20T22:59:59;6.40;;;3.53;;
21663;SDS011;10993;52.510;13.456;2023-02-20T23:05:18;6.10;;;3.08;;
21663;SDS011;10993;52.510;13.456;2023-02-20T23:10:39;6.07;;;3.25;;
21663;SDS011;10993;52.510;13.456;2023-02-20T23:15:57;5.25;;;2.70;;
21663;SDS011;10993;52.510;13.456;2023-02-20T23:21:17;5.80;;;3.00;;
21663;SDS011;10993;52.510;13.456;2023-02-20T23:26:37;5.32;;;2.95;;
21663;SDS011;10993;52.510;13.456;2023-02-20T23:31:57;5.15;;;2.53;;
21663;SDS011;10993;52.510;13.456;2023-02-20T23:37:16;6.28;;;2.83;;
21663;SDS011;10993;52.510;13.456;2023-02-20T23:42:36;4.90;;;2.45;;
21663;SDS011;10993;52.510;13.456;2023-02-20T23:47:55;5.22;;;2.50;;
21663;SDS011;10993;52.510;13.456;2023-02-20T23:53:14;5.30;;;2.50;;
21663;SDS011;10993;52.510;13.456;2023-02-20T23:58:34;6.20;;;2.88;;
